Time;durP1;ratioP1;P1;durP2;ratioP2;P2;SDS_P1;SDS_P2;PMS_P1;PMS_P2;Temp;Humidity;BMP_temperature;BMP_pressure;BME280_temperature;BME280_humidity;BME280_pressure;Samples;Min_cycle;Max_cycle;Signal;HPM_P1;HPM_P2
2022/10/21 00:00:34;;;;;;;;;;;22.60;1.00;;;;;;5006842;23;20316;-52
2022/10/21 00:02:59;;;;;;;;;;;22.60;1.00;;;;;;4994493;28;19913;-51
2022/10/21 00:05:25;;;;;;;;;;;22.60;1.00;;;;;;4994258;28;19945;-49
2022/10/21 00:07:51;;;;;;;;;;;22.60;1.00;;;;;;4994380;28;19905;-49
2022/10/21 00:10:16;;;;;;;;;;;22.60;1.00;;;;;;4993070;28;19964;-50
2022/10/21 00:12:42;;;;;;;;;;;22.60;1.00;;;;;;4994380;28;19913;-49
2022/10/21 00:15:08;;;;;;;;;;;22.60;1.00;;;;;;4994319;28;20152;-49
2022/10/21 00:17:35;;;;;;;;;;;22.50;1.00;;;;;;4994108;28;19913;-49
2022/10/21 00:20:01;;;;;;;;;;;22.50;1.00;;;;;;4994139;28;20261;-49
2022/10/21 00:22:27;;;;;;;;;;;22.50;1.00;;;;;;5009180;28;19914;-49
2022/10/21 00:24:52;;;;;;;;;;;22.50;1.00;;;;;;4993973;28;20433;-49
2022/10/21 00:27:18;;;;;;;;;;;22.50;1.00;;;;;;4993890;28;19905;-49
2022/10/21 00:29:43;;;;;;;;;;;22.50;1.00;;;;;;4994153;28;20429;-49
2022/10/21 00:32:09;;;;;;;;;;;22.50;1.00;;;;;;4993886;28;20008;-49
2022/10/21 00:34:35;;;;;;;;;;;22.50;1.00;;;;;;5008914;28;19960;-49
2022/10/21 00:37:00;;;;;;;;;;;22.50;1.00;;;;;;4993864;28;19960;-49
2022/10/21 00:39:26;;;;;;;;;;;22.50;1.00;;;;;;4993624;28;20368;-49
2022/10/21 00:41:51;;;;;;;;;;;22.50;1.00;;;;;;4993694;28;19918;-49
2022/10/21 00:44:17;;;;;;;;;;;22.40;1.00;;;;;;4993688;28;19973;-49
2022/10/21 00:46:43;;;;;;;;;;;22.40;1.00;;;;;;4992682;28;19952;-49
2022/10/21 00:49:15;;;;;;;;;;;22.40;1.00;;;;;;4993840;28;19906;-49
2022/10/21 00:51:41;;;;;;;;;;;22.40;1.00;;;;;;4993489;28;19945;-49
2022/10/21 00:54:07;;;;;;;;;;;22.40;1.00;;;;;;4993184;28;19949;-49
2022/10/21 00:56:33;;;;;;;;;;;22.40;1.00;;;;;;4993429;28;19944;-49
2022/10/21 00:59:00;;;;;;;;;;;22.40;1.00;;;;;;4993616;28;19945;-49
2022/10/21 01:01:25;;;;;;;;;;;22.40;1.00;;;;;;5005104;23;20377;-53
2022/10/21 01:03:51;;;;;;;;;;;22.30;1.00;;;;;;4993337;28;19964;-53
2022/10/21 01:06:18;;;;;;;;;;;22.30;1.00;;;;;;4993604;28;19906;-52
2022/10/21 01:08:44;;;;;;;;;;;22.40;1.00;;;;;;4993296;28;19912;-52
2022/10/21 01:11:12;;;;;;;;;;;22.30;1.00;;;;;;4993184;28;19906;-53
2022/10/21 01:13:47;;;;;;;;;;;22.30;1.00;;;;;;5008413;28;20476;-52
2022/10/21 01:16:21;;;;;;;;;;;22.30;1.00;;;;;;4993071;28;20004;-53
2022/10/21 01:18:56;;;;;;;;;;;22.30;1.00;;;;;;4993208;28;19906;-53
2022/10/21 01:21:25;;;;;;;;;;;22.40;1.00;;;;;;4993009;28;19968;-52
2022/10/21 01:24:03;;;;;;;;;;;22.30;1.00;;;;;;4992879;28;19925;-52
2022/10/21 01:26:40;;;;;;;;;;;22.30;1.00;;;;;;4992858;28;20285;-53
2022/10/21 01:29:24;;;;;;;;;;;22.30;1.00;;;;;;4992862;28;20380;-53
2022/10/21 01:31:50;;;;;;;;;;;22.30;1.00;;;;;;4992918;28;19910;-52
2022/10/21 01:34:21;;;;;;;;;;;22.30;1.00;;;;;;4992973;28;19906;-52
2022/10/21 01:36:49;;;;;;;;;;;22.40;1.00;;;;;;4993035;28;19906;-53
2022/10/21 01:39:15;;;;;;;;;;;22.40;1.00;;;;;;4993068;28;19905;-53
2022/10/21 01:41:47;;;;;;;;;;;22.40;1.00;;;;;;4992586;28;19916;-53
2022/10/21 01:44:12;;;;;;;;;;;22.30;1.00;;;;;;4992720;28;19913;-53
2022/10/21 01:46:43;;;;;;;;;;;22.40;1.00;;;;;;4992912;28;20269;-53
2022/10/21 01:49:24;;;;;;;;;;;22.30;1.00;;;;;;5007796;28;19912;-53
2022/10/21 01:51:51;;;;;;;;;;;22.40;1.00;;;;;;4992733;28;20333;-53
2022/10/21 01:54:22;;;;;;;;;;;22.40;1.00;;;;;;4991303;28;19910;-53
2022/10/21 01:56:48;;;;;;;;;;;22.40;1.00;;;;;;4992634;28;20030;-53
2022/10/21 01:59:15;;;;;;;;;;;22.30;1.00;;;;;;4992964;28;20369;-52
2022/10/21 02:01:42;;;;;;;;;;;22.30;1.00;;;;;;4992145;28;20333;-53
2022/10/21 02:04:08;;;;;;;;;;;22.30;1.00;;;;;;4992204;28;20361;-53
2022/10/21 02:06:34;;;;;;;;;;;22.30;1.00;;;;;;4991623;28;19906;-53
2022/10/21 02:09:00;;;;;;;;;;;22.30;1.00;;;;;;4992352;28;19976;-53
2022/10/21 02:11:26;;;;;;;;;;;22.30;1.00;;;;;;4992318;28;20274;-53
2022/10/21 02:13:55;;;;;;;;;;;22.30;1.00;;;;;;4992534;28;19960;-53
2022/10/21 02:16:22;;;;;;;;;;;22.30;1.00;;;;;;4992428;28;19910;-53
2022/10/21 02:18:47;;;;;;;;;;;22.30;1.00;;;;;;4992464;28;19952;-53
2022/10/21 02:21:17;;;;;;;;;;;22.20;1.00;;;;;;4992315;28;20258;-53
2022/10/21 02:23:47;;;;;;;;;;;22.20;1.00;;;;;;4992111;28;20004;-53
2022/10/21 02:26:13;;;;;;;;;;;22.30;1.00;;;;;;4992104;28;20857;-53
2022/10/21 02:28:39;;;;;;;;;;;22.20;1.00;;;;;;4992126;28;19906;-53
2022/10/21 02:31:18;;;;;;;;;;;22.20;1.00;;;;;;4992205;28;19953;-53
2022/10/21 02:34:03;;;;;;;;;;;22.20;1.00;;;;;;4992121;28;19910;-53
2022/10/21 02:36:48;;;;;;;;;;;22.20;1.00;;;;;;4992035;28;19910;-53
2022/10/21 02:39:34;;;;;;;;;;;22.20;1.00;;;;;;4992224;28;19932;-53
2022/10/21 02:42:01;;;;;;;;;;;22.20;1.00;;;;;;4991769;28;19932;-55
2022/10/21 02:44:26;;;;;;;;;;;22.20;1.00;;;;;;4992172;28;19909;-53
2022/10/21 02:46:52;;;;;;;;;;;22.20;1.00;;;;;;4992166;28;20274;-53
2022/10/21 02:49:17;;;;;;;;;;;22.20;1.00;;;;;;4992050;28;19905;-53
2022/10/21 02:51:43;;;;;;;;;;;22.20;1.00;;;;;;4992040;28;19913;-53
2022/10/21 02:54:09;;;;;;;;;;;22.20;1.00;;;;;;4991916;28;20281;-53
2022/10/21 02:56:35;;;;;;;;;;;22.20;1.00;;;;;;4991884;28;19906;-53
2022/10/21 02:59:00;;;;;;;;;;;22.20;1.00;;;;;;4991850;28;19906;-53
2022/10/21 03:01:26;;;;;;;;;;;22.20;1.00;;;;;;5002878;23;19921;-54
2022/10/21 03:03:51;;;;;;;;;;;22.20;1.00;;;;;;4992037;28;20296;-53
2022/10/21 03:06:17;;;;;;;;;;;22.20;1.00;;;;;;4991692;28;19906;-54
2022/10/21 03:08:43;;;;;;;;;;;22.20;99.90;;;;;;4990529;28;19906;-53
2022/10/21 03:11:08;;;;;;;;;;;22.20;99.90;;;;;;4990444;28;19906;-53
2022/10/21 03:13:34;;;;;;;;;;;22.20;99.90;;;;;;4991767;28;19906;-54
2022/10/21 03:15:59;;;;;;;;;;;22.20;1.40;;;;;;4991708;28;19909;-54
2022/10/21 03:18:25;;;;;;;;;;;22.20;1.40;;;;;;4994851;28;19909;-53
2022/10/21 03:20:51;;;;;;;;;;;22.20;1.00;;;;;;4995174;28;19905;-53
2022/10/21 03:23:17;;;;;;;;;;;22.10;1.00;;;;;;4995230;28;19944;-54
2022/10/21 03:25:43;;;;;;;;;;;22.20;1.00;;;;;;4995258;28;19913;-54
2022/10/21 03:28:08;;;;;;;;;;;22.20;1.00;;;;;;4995085;28;20297;-54
2022/10/21 03:30:34;;;;;;;;;;;22.20;1.00;;;;;;4995284;28;19976;-54
2022/10/21 03:32:59;;;;;;;;;;;22.20;1.00;;;;;;4995151;28;20324;-53
2022/10/21 03:35:25;;;;;;;;;;;22.10;1.00;;;;;;4995213;28;19912;-54
2022/10/21 03:37:51;;;;;;;;;;;22.10;1.00;;;;;;4995070;28;20333;-54
2022/10/21 03:40:17;;;;;;;;;;;22.10;1.00;;;;;;4994807;28;19932;-54
2022/10/21 03:42:42;;;;;;;;;;;22.10;1.00;;;;;;4994756;28;20420;-54
2022/10/21 03:45:09;;;;;;;;;;;22.10;1.00;;;;;;4994981;28;19906;-54
2022/10/21 03:47:34;;;;;;;;;;;22.10;1.00;;;;;;4993262;28;20355;-53
2022/10/21 03:50:00;;;;;;;;;;;22.10;1.00;;;;;;4994800;28;19932;-54
2022/10/21 03:52:26;;;;;;;;;;;22.00;1.00;;;;;;4993620;28;19913;-54
2022/10/21 03:54:51;;;;;;;;;;;22.00;1.00;;;;;;4994738;28;19912;-54
2022/10/21 03:57:17;;;;;;;;;;;22.00;1.00;;;;;;4994633;28;19906;-53
2022/10/21 03:59:42;;;;;;;;;;;22.00;1.00;;;;;;4995006;28;19925;-54
2022/10/21 04:02:08;;;;;;;;;;;22.00;1.00;;;;;;4994844;28;20344;-56
2022/10/21 04:04:34;;;;;;;;;;;22.00;1.00;;;;;;4994462;28;20160;-53
2022/10/21 04:06:59;;;;;;;;;;;22.00;1.00;;;;;;4994529;28;19956;-54
2022/10/21 04:09:25;;;;;;;;;;;22.00;1.00;;;;;;4994519;28;19905;-54
2022/10/21 04:11:50;;;;;;;;;;;22.00;1.00;;;;;;4993010;28;19912;-54
2022/10/21 04:14:16;;;;;;;;;;;21.90;1.00;;;;;;4994261;28;20372;-55
2022/10/21 04:16:42;;;;;;;;;;;22.00;1.00;;;;;;4994168;28;19937;-53
2022/10/21 04:19:07;;;;;;;;;;;21.90;1.00;;;;;;4994266;28;20066;-53
2022/10/21 04:21:33;;;;;;;;;;;22.00;1.00;;;;;;4994221;28;19912;-54
2022/10/21 04:23:59;;;;;;;;;;;22.00;1.00;;;;;;4994341;28;20265;-54
2022/10/21 04:26:24;;;;;;;;;;;22.00;1.00;;;;;;4994160;28;19905;-54
2022/10/21 04:28:50;;;;;;;;;;;22.00;1.00;;;;;;4993366;28;20345;-53
2022/10/21 04:31:15;;;;;;;;;;;21.90;1.00;;;;;;5009175;28;20273;-54
2022/10/21 04:33:41;;;;;;;;;;;21.90;1.00;;;;;;4993899;28;19992;-53
2022/10/21 04:36:06;;;;;;;;;;;21.90;1.00;;;;;;4993854;28;19967;-53
2022/10/21 04:38:32;;;;;;;;;;;21.90;1.00;;;;;;4993898;28;19906;-53
2022/10/21 04:40:58;;;;;;;;;;;21.90;1.00;;;;;;4993938;28;20444;-54
2022/10/21 04:43:24;;;;;;;;;;;21.90;1.00;;;;;;4993754;28;19936;-54
2022/10/21 04:45:50;;;;;;;;;;;21.90;1.00;;;;;;4993796;28;19917;-53
2022/10/21 04:48:16;;;;;;;;;;;21.90;1.00;;;;;;4993702;28;20001;-54
2022/10/21 04:50:41;;;;;;;;;;;21.90;1.00;;;;;;4993751;28;19902;-54
2022/10/21 04:53:07;;;;;;;;;;;21.80;1.00;;;;;;4993721;28;19913;-54
2022/10/21 04:55:33;;;;;;;;;;;21.80;1.00;;;;;;4993602;28;19902;-54
2022/10/21 04:57:58;;;;;;;;;;;21.80;1.00;;;;;;4993647;28;20273;-54
2022/10/21 05:00:24;;;;;;;;;;;21.80;1.00;;;;;;4993233;28;19917;-54
2022/10/21 05:02:49;;;;;;;;;;;21.80;1.00;;;;;;4993276;28;20389;-53
2022/10/21 05:05:15;;;;;;;;;;;21.80;1.00;;;;;;4993331;28;19912;-54
2022/10/21 05:07:41;;;;;;;;;;;21.80;1.00;;;;;;4993218;28;19905;-54
2022/10/21 05:10:06;;;;;;;;;;;21.80;1.00;;;;;;4993206;28;19940;-54
2022/10/21 05:12:32;;;;;;;;;;;21.80;1.00;;;;;;4993313;28;19910;-54
2022/10/21 05:14:59;;;;;;;;;;;21.80;1.00;;;;;;4993081;28;20332;-55
2022/10/21 05:17:25;;;;;;;;;;;21.80;1.00;;;;;;4992868;28;19917;-52
2022/10/21 05:19:51;;;;;;;;;;;21.80;1.00;;;;;;4993061;28;19905;-51
2022/10/21 05:22:16;;;;;;;;;;;21.80;1.00;;;;;;4992769;28;20279;-52
2022/10/21 05:24:42;;;;;;;;;;;21.80;1.00;;;;;;4992884;28;19909;-53
2022/10/21 05:27:07;;;;;;;;;;;21.70;1.00;;;;;;4992925;28;19906;-52
2022/10/21 05:29:33;;;;;;;;;;;21.70;1.00;;;;;;4992924;28;19906;-52
2022/10/21 05:31:59;;;;;;;;;;;21.70;1.00;;;;;;4992828;28;19906;-52
2022/10/21 05:34:24;;;;;;;;;;;21.70;1.00;;;;;;4992815;28;20065;-54
2022/10/21 05:36:50;;;;;;;;;;;21.80;1.00;;;;;;4992839;28;19906;-52
2022/10/21 05:39:15;;;;;;;;;;;21.80;1.00;;;;;;4992729;28;19957;-53
2022/10/21 05:41:41;;;;;;;;;;;21.80;1.00;;;;;;4992425;28;19910;-53
2022/10/21 05:44:06;;;;;;;;;;;21.70;1.00;;;;;;4992379;28;19905;-53
2022/10/21 05:46:32;;;;;;;;;;;21.80;1.00;;;;;;4992697;28;19977;-53
2022/10/21 05:48:58;;;;;;;;;;;21.80;1.00;;;;;;4992347;28;19913;-52
2022/10/21 05:51:25;;;;;;;;;;;21.80;1.00;;;;;;4992888;28;20277;-52
2022/10/21 05:53:52;;;;;;;;;;;21.80;1.00;;;;;;4992395;28;19909;-52
2022/10/21 05:56:17;;;;;;;;;;;21.80;1.00;;;;;;4992447;28;19906;-52
2022/10/21 05:58:43;;;;;;;;;;;21.80;1.00;;;;;;4992463;28;20375;-52
2022/10/21 06:01:08;;;;;;;;;;;21.80;1.00;;;;;;4992413;28;19918;-53
2022/10/21 06:03:34;;;;;;;;;;;21.80;1.00;;;;;;4992224;28;20388;-52
2022/10/21 06:06:01;;;;;;;;;;;21.80;1.00;;;;;;4992138;28;19910;-52
2022/10/21 06:08:27;;;;;;;;;;;21.90;1.00;;;;;;4992249;28;20863;-52
2022/10/21 06:11:03;;;;;;;;;;;21.90;1.00;;;;;;4992282;28;20257;-53
2022/10/21 06:13:29;;;;;;;;;;;21.90;1.00;;;;;;4992155;28;19906;-52
2022/10/21 06:15:55;;;;;;;;;;;21.90;1.00;;;;;;4992339;28;19992;-53
2022/10/21 06:18:21;;;;;;;;;;;21.90;1.00;;;;;;4992216;28;20056;-53
2022/10/21 06:20:46;;;;;;;;;;;21.90;1.00;;;;;;4992097;28;19905;-53
2022/10/21 06:23:14;;;;;;;;;;;21.90;1.00;;;;;;4992131;28;20012;-53
2022/10/21 06:25:39;;;;;;;;;;;21.90;1.00;;;;;;4992086;28;19989;-52
2022/10/21 06:28:05;;;;;;;;;;;21.90;1.00;;;;;;4992224;28;19906;-55
2022/10/21 06:30:30;;;;;;;;;;;21.90;1.00;;;;;;4992007;28;20420;-52
2022/10/21 06:32:56;;;;;;;;;;;22.00;1.00;;;;;;4992140;28;19906;-52
2022/10/21 06:35:22;;;;;;;;;;;21.90;1.00;;;;;;4992126;28;19946;-52
2022/10/21 06:37:47;;;;;;;;;;;21.90;1.00;;;;;;5007277;28;19913;-53
2022/10/21 06:40:13;;;;;;;;;;;22.00;1.00;;;;;;4992014;28;19933;-52
2022/10/21 06:42:39;;;;;;;;;;;22.00;1.00;;;;;;5007254;28;19936;-54
2022/10/21 06:45:04;;;;;;;;;;;22.00;1.00;;;;;;5007059;28;20032;-53
2022/10/21 06:47:30;;;;;;;;;;;22.00;1.00;;;;;;4991887;28;19932;-53
2022/10/21 06:49:56;;;;;;;;;;;22.00;1.00;;;;;;4991700;28;20328;-53
2022/10/21 06:52:21;;;;;;;;;;;22.00;1.00;;;;;;4993260;28;19913;-53
2022/10/21 06:54:47;;;;;;;;;;;22.00;1.00;;;;;;4995493;28;20397;-53
2022/10/21 06:57:13;;;;;;;;;;;22.00;1.00;;;;;;4995708;28;19905;-53
2022/10/21 06:59:38;;;;;;;;;;;22.00;1.00;;;;;;4995613;28;20278;-52
2022/10/21 07:02:04;;;;;;;;;;;22.00;1.00;;;;;;4995362;28;20218;-53
2022/10/21 07:04:29;;;;;;;;;;;22.00;1.00;;;;;;4995510;28;19997;-52
2022/10/21 07:06:55;;;;;;;;;;;22.00;1.00;;;;;;4995340;28;19913;-53
2022/10/21 07:09:21;;;;;;;;;;;22.00;1.00;;;;;;4995346;28;19913;-52
2022/10/21 07:11:46;;;;;;;;;;;22.00;1.00;;;;;;4995298;28;19906;-53
2022/10/21 07:14:12;;;;;;;;;;;22.00;1.00;;;;;;4995455;28;20008;-53
2022/10/21 07:16:37;;;;;;;;;;;22.10;1.00;;;;;;4995494;28;19905;-52
2022/10/21 07:19:03;;;;;;;;;;;22.10;1.00;;;;;;5010189;28;20334;-54
2022/10/21 07:21:30;;;;;;;;;;;22.10;1.00;;;;;;4995268;28;19906;-53
2022/10/21 07:23:56;;;;;;;;;;;22.10;1.00;;;;;;4995153;28;19913;-52
2022/10/21 07:26:22;;;;;;;;;;;22.10;1.00;;;;;;4995499;28;19906;-53
2022/10/21 07:28:48;;;;;;;;;;;22.10;1.00;;;;;;4993705;28;19906;-53
2022/10/21 07:31:14;;;;;;;;;;;22.10;1.00;;;;;;4994997;28;19912;-53
2022/10/21 07:33:40;;;;;;;;;;;22.10;1.00;;;;;;4994966;28;19909;-53
2022/10/21 07:36:08;;;;;;;;;;;22.20;1.00;;;;;;4994958;28;20411;-53
2022/10/21 07:38:33;;;;;;;;;;;22.20;1.00;;;;;;4993474;28;19917;-53
2022/10/21 07:40:59;;;;;;;;;;;22.20;1.00;;;;;;4994667;28;19906;-53
2022/10/21 07:43:25;;;;;;;;;;;22.20;1.00;;;;;;4994674;28;19953;-53
2022/10/21 07:45:50;;;;;;;;;;;22.20;1.00;;;;;;4994683;28;19960;-52
2022/10/21 07:48:16;;;;;;;;;;;22.20;1.00;;;;;;4994697;28;19906;-53
2022/10/21 07:50:42;;;;;;;;;;;22.30;1.00;;;;;;4994948;28;20028;-53
2022/10/21 07:53:07;;;;;;;;;;;22.30;1.00;;;;;;4994640;28;19905;-53
2022/10/21 07:55:33;;;;;;;;;;;22.30;1.00;;;;;;4994522;28;19905;-53
2022/10/21 07:57:59;;;;;;;;;;;22.30;1.00;;;;;;4993104;28;20338;-52
2022/10/21 08:00:24;;;;;;;;;;;22.30;1.40;;;;;;4994328;28;19972;-53
2022/10/21 08:02:54;;;;;;;;;;;22.30;1.40;;;;;;4994023;28;19918;-53
2022/10/21 08:05:20;;;;;;;;;;;22.30;1.40;;;;;;4993495;28;19910;-53
2022/10/21 08:07:45;;;;;;;;;;;22.30;1.00;;;;;;4994191;28;19913;-53
2022/10/21 08:10:11;;;;;;;;;;;22.30;1.00;;;;;;4994372;28;20273;-52
2022/10/21 08:12:37;;;;;;;;;;;22.30;1.40;;;;;;4994274;28;19906;-52
2022/10/21 08:15:02;;;;;;;;;;;22.30;1.40;;;;;;4994256;28;19913;-52
2022/10/21 08:17:28;;;;;;;;;;;22.40;1.40;;;;;;4994151;28;20370;-52
2022/10/21 08:19:55;;;;;;;;;;;22.40;99.90;;;;;;4994128;28;20353;-52
2022/10/21 08:22:21;;;;;;;;;;;22.40;99.90;;;;;;4993934;28;20025;-52
2022/10/21 08:24:46;;;;;;;;;;;22.40;99.90;;;;;;4993956;28;20427;-52
2022/10/21 08:27:12;;;;;;;;;;;22.40;99.90;;;;;;4994195;28;19997;-52
2022/10/21 08:29:37;;;;;;;;;;;22.40;99.90;;;;;;4993785;28;20277;-52
2022/10/21 08:32:03;;;;;;;;;;;22.40;99.90;;;;;;4993881;28;19906;-52
2022/10/21 08:34:28;;;;;;;;;;;22.40;99.90;;;;;;4993652;28;20066;-52
2022/10/21 08:36:54;;;;;;;;;;;22.40;99.90;;;;;;4993646;28;19912;-52
2022/10/21 08:39:20;;;;;;;;;;;22.50;99.90;;;;;;4993733;28;19912;-52
2022/10/21 08:41:52;;;;;;;;;;;22.50;99.90;;;;;;4993738;28;20282;-52
2022/10/21 08:44:26;;;;;;;;;;;22.50;99.90;;;;;;4993647;28;19906;-52
2022/10/21 08:46:52;;;;;;;;;;;22.60;99.90;;;;;;4993537;28;19996;-52
2022/10/21 08:49:27;;;;;;;;;;;22.60;99.90;;;;;;4993687;28;19905;-52
2022/10/21 08:51:56;;;;;;;;;;;22.60;99.90;;;;;;4993426;28;19906;-52
2022/10/21 08:54:24;;;;;;;;;;;22.70;99.90;;;;;;4993293;28;19906;-52
2022/10/21 08:56:53;;;;;;;;;;;22.70;99.90;;;;;;4993196;28;19910;-52
2022/10/21 08:59:20;;;;;;;;;;;22.80;99.90;;;;;;4993435;28;19968;-52
2022/10/21 09:02:05;;;;;;;;;;;22.70;99.90;;;;;;4993241;28;20004;-53
2022/10/21 09:04:49;;;;;;;;;;;22.80;99.90;;;;;;4993301;28;19971;-53
2022/10/21 09:07:14;;;;;;;;;;;22.80;99.90;;;;;;4993525;28;19914;-52
2022/10/21 09:09:40;;;;;;;;;;;22.80;99.90;;;;;;4992279;28;20350;-53
2022/10/21 09:12:12;;;;;;;;;;;22.80;99.90;;;;;;4993158;28;19906;-53
2022/10/21 09:14:58;;;;;;;;;;;22.80;99.90;;;;;;4992835;28;19909;-53
2022/10/21 09:17:30;;;;;;;;;;;22.90;99.90;;;;;;4992381;28;19906;-53
2022/10/21 09:20:16;;;;;;;;;;;22.90;99.90;;;;;;4992905;28;20004;-53
2022/10/21 09:22:42;;;;;;;;;;;22.90;99.90;;;;;;4992729;28;19913;-54
2022/10/21 09:25:13;;;;;;;;;;;22.90;99.90;;;;;;4992807;28;19906;-53
2022/10/21 09:27:39;;;;;;;;;;;22.90;99.90;;;;;;4992821;28;20254;-53
2022/10/21 09:30:05;;;;;;;;;;;23.00;99.90;;;;;;4992868;28;19969;-53
2022/10/21 09:32:36;;;;;;;;;;;22.90;99.90;;;;;;4992674;28;19960;-52
2022/10/21 09:35:08;;;;;;;;;;;23.00;99.90;;;;;;4992796;28;20337;-53
2022/10/21 09:37:33;;;;;;;;;;;23.00;99.90;;;;;;4992545;28;19906;-52
2022/10/21 09:40:18;;;;;;;;;;;23.00;99.90;;;;;;4992616;28;19912;-53
2022/10/21 09:42:44;;;;;;;;;;;23.00;99.90;;;;;;4991035;28;19910;-53
2022/10/21 09:45:16;;;;;;;;;;;23.00;99.90;;;;;;4992430;28;19929;-53
2022/10/21 09:47:43;;;;;;;;;;;23.00;99.90;;;;;;4992259;28;19913;-53
2022/10/21 09:50:13;;;;;;;;;;;23.00;99.90;;;;;;4992331;28;20269;-53
2022/10/21 09:52:42;;;;;;;;;;;23.10;99.90;;;;;;4992315;28;19906;-53
2022/10/21 09:55:11;;;;;;;;;;;23.10;99.90;;;;;;4992211;28;19950;-53
2022/10/21 09:57:50;;;;;;;;;;;23.10;99.90;;;;;;4992478;28;19918;-52
2022/10/21 10:00:15;;;;;;;;;;;23.10;99.90;;;;;;4992052;28;19993;-53
2022/10/21 10:02:42;;;;;;;;;;;23.10;99.90;;;;;;4992148;28;20344;-54
2022/10/21 10:05:46;;;;;;;;;;;23.10;99.90;;;;;;4992185;28;19906;-53
2022/10/21 10:08:38;;;;;;;;;;;23.10;99.90;;;;;;4989767;28;19909;-53
2022/10/21 10:11:10;;;;;;;;;;;23.20;99.90;;;;;;4990564;28;19909;-53
2022/10/21 10:13:37;;;;;;;;;;;23.30;99.90;;;;;;4992068;28;19953;-54
2022/10/21 10:16:11;;;;;;;;;;;23.30;99.90;;;;;;4992205;28;19906;-53
2022/10/21 10:18:37;;;;;;;;;;;23.30;99.90;;;;;;4992031;28;19906;-52
2022/10/21 10:21:04;;;;;;;;;;;23.40;99.90;;;;;;4991984;28;19906;-53
2022/10/21 10:23:29;;;;;;;;;;;23.30;99.90;;;;;;4991968;28;20294;-53
2022/10/21 10:25:55;;;;;;;;;;;23.40;99.90;;;;;;4991912;28;19906;-53
2022/10/21 10:28:24;;;;;;;;;;;23.40;99.90;;;;;;4995256;28;19910;-53
2022/10/21 10:30:52;;;;;;;;;;;23.40;99.90;;;;;;4996236;28;20361;-52
2022/10/21 10:33:20;;;;;;;;;;;23.40;99.90;;;;;;4995857;28;19910;-55
2022/10/21 10:35:51;;;;;;;;;;;23.50;99.90;;;;;;4996023;28;19912;-52
2022/10/21 10:38:36;;;;;;;;;;;23.50;99.90;;;;;;4995982;28;20329;-53
2022/10/21 10:41:06;;;;;;;;;;;23.50;99.90;;;;;;4995954;28;20346;-53
2022/10/21 10:43:34;;;;;;;;;;;23.50;99.90;;;;;;4995695;28;20358;-53
2022/10/21 10:46:01;;;;;;;;;;;23.60;99.90;;;;;;4995772;28;20254;-53
2022/10/21 10:48:36;;;;;;;;;;;23.60;99.90;;;;;;4994284;28;20250;-53
2022/10/21 10:51:05;;;;;;;;;;;23.60;99.90;;;;;;4995640;28;20281;-53
2022/10/21 10:53:32;;;;;;;;;;;23.60;99.90;;;;;;4995419;28;20440;-54
2022/10/21 10:56:05;;;;;;;;;;;23.60;99.90;;;;;;4995480;28;20207;-55
2022/10/21 10:58:32;;;;;;;;;;;23.70;99.90;;;;;;4995592;28;19963;-54
2022/10/21 11:00:59;;;;;;;;;;;23.70;99.90;;;;;;4995170;28;20326;-54
2022/10/21 11:03:28;;;;;;;;;;;23.80;99.90;;;;;;4995712;28;19914;-55
2022/10/21 11:06:07;;;;;;;;;;;23.90;99.90;;;;;;4995642;28;19960;-55
2022/10/21 11:08:37;;;;;;;;;;;23.90;99.90;;;;;;4995441;28;19960;-54
2022/10/21 11:11:09;;;;;;;;;;;24.00;99.90;;;;;;4995288;28;19906;-54
2022/10/21 11:13:37;;;;;;;;;;;24.10;99.90;;;;;;4995462;28;20286;-54
2022/10/21 11:16:10;;;;;;;;;;;24.10;99.90;;;;;;4995276;28;20297;-55
2022/10/21 11:18:54;;;;;;;;;;;24.10;99.90;;;;;;5010306;28;20247;-54
2022/10/21 11:21:28;;;;;;;;;;;24.20;99.90;;;;;;4995314;28;20319;-54
2022/10/21 11:24:04;;;;;;;;;;;24.30;99.90;;;;;;4995176;28;19913;-54
2022/10/21 11:26:29;;;;;;;;;;;24.30;99.90;;;;;;4994996;28;20246;-54
2022/10/21 11:29:04;;;;;;;;;;;24.40;99.90;;;;;;4995106;28;19913;-54
2022/10/21 11:31:42;;;;;;;;;;;24.40;99.90;;;;;;4994907;28;20169;-54
2022/10/21 11:34:08;;;;;;;;;;;24.50;99.90;;;;;;4994788;28;19906;-54
2022/10/21 11:36:33;;;;;;;;;;;24.50;99.90;;;;;;4994660;28;19916;-54
2022/10/21 11:38:59;;;;;;;;;;;24.50;99.90;;;;;;4994704;28;19906;-55
2022/10/21 11:41:30;;;;;;;;;;;24.50;99.90;;;;;;4994820;28;19906;-55
2022/10/21 11:44:13;;;;;;;;;;;24.60;99.90;;;;;;4995025;28;20012;-54
2022/10/21 11:46:54;;;;;;;;;;;24.70;99.90;;;;;;4994611;28;20293;-54
2022/10/21 11:49:22;;;;;;;;;;;24.70;99.90;;;;;;4994686;28;19910;-55
2022/10/21 11:52:00;;;;;;;;;;;24.80;99.90;;;;;;4994963;28;20326;-54
2022/10/21 11:54:41;;;;;;;;;;;24.90;99.90;;;;;;4994907;28;19910;-54
2022/10/21 11:57:15;;;;;;;;;;;24.90;99.90;;;;;;5009522;28;19905;-55
2022/10/21 11:59:47;;;;;;;;;;;24.90;99.90;;;;;;4994296;28;19910;-55
2022/10/21 12:02:20;;;;;;;;;;;25.00;99.90;;;;;;4994475;28;20254;-55
2022/10/21 12:04:46;;;;;;;;;;;25.00;99.90;;;;;;4994426;28;20219;-54
2022/10/21 12:07:16;;;;;;;;;;;25.00;99.90;;;;;;4994441;28;19916;-54
2022/10/21 12:09:54;;;;;;;;;;;25.00;99.90;;;;;;4994228;28;19909;-54
2022/10/21 12:12:26;;;;;;;;;;;25.10;99.90;;;;;;4994245;28;19928;-54
2022/10/21 12:14:54;;;;;;;;;;;25.10;99.90;;;;;;4994093;28;19906;-52
2022/10/21 12:17:21;;;;;;;;;;;25.10;99.90;;;;;;4993975;28;19910;-53
2022/10/21 12:19:57;;;;;;;;;;;25.10;99.90;;;;;;4993936;28;19910;-52
2022/10/21 12:22:24;;;;;;;;;;;25.10;99.90;;;;;;4993882;28;19921;-52
2022/10/21 12:24:55;;;;;;;;;;;25.10;99.90;;;;;;4992674;28;20369;-52
2022/10/21 12:27:32;;;;;;;;;;;25.10;99.90;;;;;;4993846;28;19914;-52
2022/10/21 12:29:58;;;;;;;;;;;25.10;99.90;;;;;;4994142;28;19906;-52
2022/10/21 12:32:42;;;;;;;;;;;25.10;99.90;;;;;;4993604;28;20360;-52
2022/10/21 12:35:14;;;;;;;;;;;25.20;99.90;;;;;;4993780;28;19905;-55
2022/10/21 12:37:40;;;;;;;;;;;25.20;99.90;;;;;;4993772;28;20102;-54
2022/10/21 12:40:14;;;;;;;;;;;25.30;99.90;;;;;;4993892;28;20342;-55
2022/10/21 12:42:46;;;;;;;;;;;25.30;99.90;;;;;;4993779;28;20397;-55
2022/10/21 12:45:30;;;;;;;;;;;25.30;99.90;;;;;;4993739;28;20007;-54
2022/10/21 12:47:55;;;;;;;;;;;25.30;99.90;;;;;;4993669;28;19905;-55
2022/10/21 12:50:24;;;;;;;;;;;25.30;99.90;;;;;;4993016;28;19913;-55
2022/10/21 12:53:25;;;;;;;;;;;25.30;99.90;;;;;;4993615;28;19941;-54
2022/10/21 12:55:57;;;;;;;;;;;25.30;99.90;;;;;;4991149;28;20313;-54
2022/10/21 12:58:52;;;;;;;;;;;25.40;99.90;;;;;;4993123;28;19921;-55
2022/10/21 13:01:37;;;;;;;;;;;25.50;99.90;;;;;;4984156;28;19957;-50
2022/10/21 13:04:03;;;;;;;;;;;25.40;99.90;;;;;;4973828;28;20005;-52
2022/10/21 13:06:50;;;;;;;;;;;25.40;99.90;;;;;;4975777;28;19996;-54
2022/10/21 13:09:34;;;;;;;;;;;25.40;99.90;;;;;;4972738;28;19949;-53
2022/10/21 13:12:22;;;;;;;;;;;25.40;99.90;;;;;;4973897;28;19996;-53
2022/10/21 13:14:55;;;;;;;;;;;25.30;99.90;;;;;;4979431;28;19910;-54
2022/10/21 13:17:21;;;;;;;;;;;25.30;99.90;;;;;;4975280;28;19913;-53
2022/10/21 13:19:47;;;;;;;;;;;25.30;99.90;;;;;;4992311;28;19917;-50
2022/10/21 13:22:18;;;;;;;;;;;25.30;99.90;;;;;;4992962;28;20024;-51
2022/10/21 13:24:45;;;;;;;;;;;25.30;99.90;;;;;;4993112;28;19906;-53
2022/10/21 13:27:30;;;;;;;;;;;25.30;99.90;;;;;;4990912;28;19914;-53
2022/10/21 13:29:57;;;;;;;;;;;25.30;99.90;;;;;;4984344;28;19916;-51
2022/10/21 13:32:24;;;;;;;;;;;25.30;99.90;;;;;;4990098;28;19906;-51
2022/10/21 13:34:49;;;;;;;;;;;25.20;99.90;;;;;;4978105;28;19906;-53
2022/10/21 13:37:23;;;;;;;;;;;25.20;99.90;;;;;;4972978;28;20017;-50
2022/10/21 13:39:50;;;;;;;;;;;25.20;99.90;;;;;;4989729;28;19905;-51
2022/10/21 13:42:17;;;;;;;;;;;25.10;99.90;;;;;;4986108;28;19910;-52
2022/10/21 13:44:48;;;;;;;;;;;25.10;99.90;;;;;;4989023;28;19918;-53
2022/10/21 13:47:33;;;;;;;;;;;25.00;99.90;;;;;;4985393;28;19952;-52
2022/10/21 13:50:08;;;;;;;;;;;25.00;99.90;;;;;;4983823;28;19922;-53
2022/10/21 13:52:34;;;;;;;;;;;25.00;99.90;;;;;;4982458;28;20015;-53
2022/10/21 13:55:00;;;;;;;;;;;25.00;99.90;;;;;;4988589;28;19965;-53
2022/10/21 13:57:30;;;;;;;;;;;25.00;99.90;;;;;;4989303;28;20109;-53
2022/10/21 14:00:05;;;;;;;;;;;25.00;99.90;;;;;;4987064;28;19918;-53
2022/10/21 14:02:30;;;;;;;;;;;25.10;99.90;;;;;;4987137;28;19969;-54
2022/10/21 14:04:56;;;;;;;;;;;25.10;99.90;;;;;;4988787;28;20488;-52
2022/10/21 14:07:21;;;;;;;;;;;25.20;99.90;;;;;;4990115;28;19906;-53
2022/10/21 14:09:49;;;;;;;;;;;25.20;99.90;;;;;;4988250;28;20034;-53
2022/10/21 14:12:36;;;;;;;;;;;25.30;99.90;;;;;;4988571;28;19913;-53
2022/10/21 14:15:04;;;;;;;;;;;25.30;99.90;;;;;;4989706;28;19906;-53
2022/10/21 14:17:30;;;;;;;;;;;25.20;99.90;;;;;;4989863;28;20389;-53
2022/10/21 14:20:06;;;;;;;;;;;25.20;99.90;;;;;;4989659;28;19906;-52
2022/10/21 14:22:32;;;;;;;;;;;25.20;99.90;;;;;;4999786;28;19917;-53
2022/10/21 14:25:00;;;;;;;;;;;25.20;99.90;;;;;;4989898;28;20337;-53
2022/10/21 14:27:27;;;;;;;;;;;25.30;99.90;;;;;;4986560;28;20314;-53
2022/10/21 14:29:54;;;;;;;;;;;25.30;99.90;;;;;;4988994;28;19963;-53
2022/10/21 14:32:20;;;;;;;;;;;25.30;99.90;;;;;;4989451;28;19912;-54